John Murtha Johnstown Cambria County Airport
KJST : now visible

Airfield :











YOU CAN JOIN US ON...

 
LOGIN :

Register | Disclaimer

   EN    FR    IT 

 









Legend :    VFR   Marginal VFR   IFR   Intensive IFR   Very Intensive IFR
Visi :
Ceiling :
>= 8 km
>= 3000ft
5 to 8 km
1000 to 3000 ft
1500m to 5 km
500 to 1000 ft
800 to 1500m
200 to 500 ft
< 800m
< 200 ft
Symbols :   Thunderstorms  Fog  Heavy snow  Heavy precipitations  Wind > 20 kt






- Airport Elevation : 2284 ft
- IATA code : JST


KJST - John Murtha Johnstown Cambria County

CURRENT METAR :
  • 142054Z AUTO 28019G30KT 3/4SM -SN BR BKN004 OVC009 00/M01 A2938 RMK AO2 PK WND 28030/2053 SLP966 P0000 60002 T00001011 53026

EXPIRED METARs :
  • 142018Z AUTO 27019G27KT 3/4SM -SN BR OVC004 01/M01 A2935 RMK AO2 PK WND 29027/2013 P0000 T00061011
  • 141954Z AUTO 28015G28KT 1 1/4SM -SN BR OVC004 01/M01 A2933 RMK AO2 PK WND 28028/1948 RAE00UPB00E05SNB05 CIG 003V008 SLP947 P0002 T00061006
  • 141946Z AUTO 28017G26KT 1 3/4SM -SN BR OVC004 01/M01 A2934 RMK AO2 PK WND 28026/1946 RAE00UPB00E05SNB05 P0002 T00111006
  • 141922Z AUTO 27014G24KT 1 3/4SM -SN BR OVC005 01/00 A2932 RMK AO2 RAE00UPB00E05SNB05 P0001 T00110000
  • 141854Z AUTO 27015G20KT 10SM -RA OVC005 02/01 A2930 RMK AO2 CIG 003V009 SLP936 P0000 T00170006

TAF KJST
Valid from the 14 at 19:00 until the 15 at 18:00 UTC


141911Z 1419/1518 27015G20KT P6SM -RA OVC005
FM142000 28016G26KT 2SM -SN OVC005
FM150200 28020G28KT 1/2SM -SHSN FG OVC003



MET'MAP, your aeronautical weather chart ! - Copyright ORBIFLY December 2007 - Disclaimer

ORBIFLY MET'MAP TEAM :

Programming & Development : Alexandra Zaïnal
Concept & original design : Baudouin d'Aumeries
Assistance for programming : Marc-Olivier Méhu
Technical & hardware support : Manuel Goepfert

Contact : metmap@orbifly.com




SOURCES & CREDITS :

   NOAA       Earth
Advisory